Rabbit Lake, Canada
Current Conditions -  °F | °C
As of 1:00 AM on Saturday 20 Dec 2014 (Local Time) from CYQW Reporting Station
Overcast Overcast  
Wind Chill:   Ceiling: 300
Heat Index: 18°   Visibility: 7mi
Dew Point: 16°   Wind: 16mph
Humidity: 93%   Direction: 130°SE
Pressure: 29.76"   Gusts: NA
Location:  53.13°N, 107.77°W
Report Text: CYQW 200700Z AUTO 13014KT 7SM OVC003 M08/M09 A2976 RMK ICG PAST HR SLP116
Loading
Personal Weather Stations






























Interactive Weather Map New forecast layout! Learn more

10-Day Weather Forecast

Advertisements
Track Severe Weather on mobile